createdAt,value
2022-09-23T00:01:22.442Z,2.17
2022-09-23T00:03:50.415Z,3.45
2022-09-23T00:06:22.984Z,2.28
2022-09-23T00:08:51.496Z,2.30
2022-09-23T00:11:25.206Z,3.97
2022-09-23T00:16:34.554Z,2.67
2022-09-23T00:19:03.328Z,2.28
2022-09-23T00:21:31.054Z,3.15
2022-09-23T00:23:58.656Z,3.42
2022-09-23T00:26:26.218Z,3.30
2022-09-23T00:28:55.264Z,6.50
2022-09-23T00:31:25.423Z,2.35
2022-09-23T00:33:57.707Z,3.10
2022-09-23T00:36:26.602Z,3.22
2022-09-23T00:38:54.503Z,1.95
2022-09-23T00:41:22.537Z,2.45
2022-09-23T00:43:56.424Z,3.38
2022-09-23T00:46:41.206Z,2.78
2022-09-23T00:49:18.936Z,1.70
2022-09-23T00:51:55.800Z,3.28
2022-09-23T00:54:27.352Z,2.75
2022-09-23T00:56:56.597Z,4.38
2022-09-23T00:59:26.165Z,3.63
2022-09-23T01:01:56.008Z,3.30
2022-09-23T01:04:26.074Z,2.05
2022-09-23T01:06:53.690Z,2.42
2022-09-23T01:09:23.340Z,3.58
2022-09-23T01:12:05.919Z,3.45
2022-09-23T01:14:39.203Z,3.20
2022-09-23T01:17:16.105Z,2.80
2022-09-23T01:19:49.687Z,2.65
2022-09-23T01:22:38.550Z,3.25
2022-09-23T01:25:24.683Z,2.40
2022-09-23T01:28:06.237Z,2.47
2022-09-23T01:30:42.074Z,3.15
2022-09-23T01:33:15.310Z,3.50
2022-09-23T01:35:48.478Z,2.90
2022-09-23T01:38:30.899Z,4.32
2022-09-23T01:41:12.826Z,3.33
2022-09-23T01:43:54.723Z,2.95
2022-09-23T01:46:34.008Z,3.90
2022-09-23T01:49:09.854Z,1.77
2022-09-23T01:51:46.771Z,3.83
2022-09-23T01:54:22.392Z,2.53
2022-09-23T01:56:58.712Z,4.18
2022-09-23T01:59:38.334Z,2.72
2022-09-23T02:02:11.849Z,1.98
2022-09-23T02:05:11.568Z,1.90
2022-09-23T02:07:44.751Z,2.55
2022-09-23T02:10:30.633Z,2.60
2022-09-23T02:13:05.501Z,2.60
2022-09-23T02:15:40.388Z,1.60
2022-09-23T02:18:14.251Z,1.73
2022-09-23T02:20:43.395Z,4.68
2022-09-23T02:23:50.574Z,4.32
2022-09-23T02:26:23.177Z,2.60
2022-09-23T02:28:57.064Z,1.30
2022-09-23T02:31:37.886Z,2.53
2022-09-23T02:34:15.113Z,1.90
2022-09-23T02:36:56.216Z,3.17
2022-09-23T02:39:34.707Z,1.73
2022-09-23T02:42:07.711Z,1.25
2022-09-23T02:44:35.111Z,2.47
2022-09-23T02:47:03.008Z,1.50
2022-09-23T02:49:32.350Z,1.20
2022-09-23T02:52:04.891Z,1.45
2022-09-23T02:54:33.712Z,1.92
2022-09-23T02:57:06.407Z,2.10
2022-09-23T02:59:35.989Z,1.80
2022-09-23T03:02:39.999Z,2.90
2022-09-23T03:05:21.660Z,1.98
2022-09-23T03:08:05.046Z,1.95
2022-09-23T03:10:42.049Z,2.40
2022-09-23T03:13:30.005Z,1.73
2022-09-23T03:16:10.592Z,3.78
2022-09-23T03:18:40.915Z,1.85
2022-09-23T03:21:18.208Z,1.38
2022-09-23T03:23:48.077Z,2.10
2022-09-23T03:26:23.375Z,3.92
2022-09-23T03:28:51.943Z,1.52
2022-09-23T03:31:19.752Z,1.77
2022-09-23T03:33:52.624Z,1.42
2022-09-23T03:36:46.430Z,2.97
2022-09-23T03:39:40.263Z,2.22
2022-09-23T03:42:18.687Z,3.90
2022-09-23T03:44:47.224Z,1.65
2022-09-23T03:47:16.297Z,2.08
2022-09-23T03:49:48.400Z,3.63
2022-09-23T03:52:21.744Z,3.95
2022-09-23T03:54:52.243Z,3.15
2022-09-23T03:57:23.938Z,2.03
2022-09-23T03:59:51.865Z,2.10
2022-09-23T04:02:20.211Z,1.92
2022-09-23T04:04:47.879Z,2.20
2022-09-23T04:07:15.873Z,1.55
2022-09-23T04:09:43.817Z,3.35
2022-09-23T04:12:16.205Z,1.33
2022-09-23T04:14:43.980Z,1.88
2022-09-23T04:17:12.583Z,7.55
2022-09-23T04:19:40.325Z,1.48
2022-09-23T04:22:08.695Z,1.48
2022-09-23T04:24:36.353Z,2.53
2022-09-23T04:27:03.981Z,2.65
2022-09-23T04:29:31.904Z,4.82
2022-09-23T04:31:59.648Z,2.45
2022-09-23T04:34:27.553Z,2.70
2022-09-23T04:36:55.116Z,1.80
2022-09-23T04:39:22.565Z,1.77
2022-09-23T04:41:50.027Z,1.98
2022-09-23T04:44:17.571Z,3.33
2022-09-23T04:46:49.448Z,1.67
2022-09-23T04:49:21.155Z,1.85
2022-09-23T04:51:48.945Z,3.08
2022-09-23T04:54:16.677Z,4.63
2022-09-23T04:56:44.432Z,2.92
2022-09-23T04:59:11.972Z,2.17
2022-09-23T05:01:39.796Z,1.80
2022-09-23T05:04:10.248Z,1.80
2022-09-23T05:06:38.335Z,1.42
2022-09-23T05:09:08.607Z,3.45
2022-09-23T05:11:36.399Z,1.40
2022-09-23T05:14:03.920Z,2.47
2022-09-23T05:16:31.594Z,4.50
2022-09-23T05:18:59.773Z,2.47
2022-09-23T05:21:29.017Z,4.68
2022-09-23T05:23:59.128Z,1.38
2022-09-23T05:26:30.122Z,2.08
2022-09-23T05:28:58.729Z,3.55
2022-09-23T05:31:28.488Z,2.60
2022-09-23T05:33:59.482Z,9.27
2022-09-23T05:36:33.099Z,3.08
2022-09-23T05:39:04.532Z,2.13
2022-09-23T05:41:32.861Z,2.92
2022-09-23T05:44:00.951Z,3.42
2022-09-23T05:46:30.827Z,4.00
2022-09-23T05:49:06.754Z,2.90
2022-09-23T05:51:35.880Z,11.57
2022-09-23T05:54:05.451Z,5.00
2022-09-23T05:56:34.575Z,8.63
2022-09-23T05:59:03.956Z,9.15
2022-09-23T06:01:34.444Z,8.13
2022-09-23T06:04:04.423Z,6.78
2022-09-23T06:06:33.555Z,5.82
2022-09-23T06:09:02.219Z,5.20
2022-09-23T06:11:31.097Z,7.53
2022-09-23T06:14:01.319Z,3.65
2022-09-23T06:16:31.067Z,5.03
2022-09-23T06:19:05.902Z,5.07
2022-09-23T06:21:36.402Z,4.53
2022-09-23T06:24:04.824Z,6.28
2022-09-23T06:26:34.736Z,7.68
2022-09-23T06:29:04.338Z,12.68
2022-09-23T06:31:33.853Z,10.60
2022-09-23T06:34:11.064Z,32.10
2022-09-23T06:36:44.861Z,4.40
2022-09-23T06:41:42.544Z,13.65
2022-09-23T06:44:14.442Z,17.42
2022-09-23T06:46:42.390Z,8.95
2022-09-23T06:49:10.745Z,7.80
2022-09-23T06:51:38.324Z,8.10
2022-09-23T06:54:06.437Z,15.13
2022-09-23T06:56:38.831Z,8.68
2022-09-23T06:59:13.014Z,8.02
2022-09-23T07:01:40.904Z,9.27
2022-09-23T07:04:10.655Z,8.57
2022-09-23T07:06:38.417Z,8.32
2022-09-23T07:09:07.677Z,4.40
2022-09-23T07:11:35.519Z,7.95
2022-09-23T07:14:03.500Z,3.85
2022-09-23T07:16:32.909Z,5.85
2022-09-23T07:19:00.868Z,3.78
2022-09-23T07:21:28.952Z,5.93
2022-09-23T07:23:58.285Z,3.83
2022-09-23T07:26:26.656Z,3.25
2022-09-23T07:29:04.830Z,4.88
2022-09-23T07:31:39.523Z,2.72
2022-09-23T07:34:11.377Z,4.45
2022-09-23T07:36:41.056Z,5.30
2022-09-23T07:39:11.556Z,6.03
2022-09-23T07:41:41.858Z,5.07
2022-09-23T07:44:11.854Z,10.63
2022-09-23T07:46:40.120Z,4.03
2022-09-23T07:49:08.269Z,7.45
2022-09-23T07:51:38.275Z,6.38
2022-09-23T07:54:13.205Z,2.50
2022-09-23T07:56:41.673Z,4.22
2022-09-23T07:59:18.287Z,7.05
2022-09-23T08:01:48.550Z,6.43
2022-09-23T08:04:22.177Z,12.13
2022-09-23T08:06:55.866Z,7.80
2022-09-23T08:09:29.099Z,5.93
2022-09-23T08:11:56.723Z,6.55
2022-09-23T08:14:24.311Z,5.70
2022-09-23T08:16:52.321Z,5.13
2022-09-23T08:19:20.414Z,7.57
2022-09-23T08:21:48.065Z,5.25
2022-09-23T08:24:18.123Z,2.50
2022-09-23T08:26:46.866Z,4.35
2022-09-23T08:29:19.171Z,3.50
2022-09-23T08:31:47.420Z,5.20
2022-09-23T08:34:15.820Z,3.58
2022-09-23T08:36:43.616Z,4.07
2022-09-23T08:39:17.487Z,4.13
2022-09-23T08:41:45.029Z,3.00
2022-09-23T08:44:26.745Z,5.15
2022-09-23T08:47:00.258Z,2.45
2022-09-23T08:49:39.287Z,5.57
2022-09-23T08:52:14.487Z,5.25
2022-09-23T08:54:42.247Z,4.80
2022-09-23T08:57:25.954Z,3.92
2022-09-23T09:02:23.342Z,3.65
2022-09-23T09:05:00.106Z,3.38
2022-09-23T09:07:37.298Z,5.43
2022-09-23T09:10:16.916Z,2.67
2022-09-23T09:12:45.766Z,3.58
2022-09-23T09:15:20.067Z,4.03
2022-09-23T09:17:59.433Z,5.68
2022-09-23T09:20:40.795Z,4.93
2022-09-23T09:23:11.551Z,4.50
2022-09-23T09:25:53.226Z,3.75
2022-09-23T09:28:45.446Z,4.55
2022-09-23T09:31:22.442Z,6.43
2022-09-23T09:34:00.472Z,3.72
2022-09-23T09:36:49.182Z,4.78
2022-09-23T09:39:17.314Z,3.08
2022-09-23T09:41:51.859Z,4.70
2022-09-23T09:44:37.019Z,7.18
2022-09-23T09:47:31.317Z,4.68
2022-09-23T09:50:07.773Z,6.10
2022-09-23T09:52:38.346Z,5.20
2022-09-23T09:55:14.925Z,4.05
2022-09-23T09:57:45.988Z,4.53
2022-09-23T10:00:27.637Z,2.75
2022-09-23T10:03:03.236Z,3.35
2022-09-23T10:05:47.792Z,2.38
2022-09-23T10:08:32.272Z,5.45
2022-09-23T10:11:15.126Z,2.80
2022-09-23T10:14:03.135Z,5.40
2022-09-23T10:16:32.805Z,4.20
2022-09-23T10:19:02.737Z,3.83
2022-09-23T10:21:37.992Z,2.83
2022-09-23T10:24:07.118Z,3.28
2022-09-23T10:26:40.997Z,4.35
2022-09-23T10:29:31.710Z,5.40
2022-09-23T10:32:37.456Z,3.58
2022-09-23T10:35:13.999Z,2.20
2022-09-23T10:37:49.496Z,3.15
2022-09-23T10:40:56.373Z,4.55
2022-09-23T10:43:58.551Z,2.75
2022-09-23T10:46:47.635Z,5.45
2022-09-23T10:49:40.476Z,5.85
2022-09-23T10:52:25.129Z,1.95
2022-09-23T10:55:11.806Z,2.20
2022-09-23T10:57:45.281Z,2.03
2022-09-23T11:00:23.072Z,3.15
2022-09-23T11:03:25.034Z,2.90
2022-09-23T11:06:22.561Z,3.58
2022-09-23T11:09:07.903Z,4.03
2022-09-23T11:11:53.339Z,1.98
2022-09-23T11:14:29.718Z,1.98
2022-09-23T11:17:18.138Z,3.97
2022-09-23T11:20:23.197Z,2.88
2022-09-23T11:23:09.514Z,3.78
2022-09-23T11:25:58.386Z,3.65
2022-09-23T11:28:35.109Z,2.92
2022-09-23T11:31:27.591Z,4.50
2022-09-23T11:34:09.981Z,6.75
2022-09-23T11:36:47.022Z,4.00
2022-09-23T11:39:20.496Z,3.55
2022-09-23T11:44:28.693Z,4.00
2022-09-23T11:47:09.206Z,3.30
2022-09-23T11:50:03.122Z,3.25
2022-09-23T11:52:42.661Z,3.60
2022-09-23T11:55:24.561Z,4.80
2022-09-23T11:57:56.482Z,3.75
2022-09-23T12:00:28.025Z,3.88
2022-09-23T12:03:12.388Z,5.28
2022-09-23T12:05:47.516Z,4.05
2022-09-23T12:08:29.118Z,4.35
2022-09-23T12:11:09.763Z,3.42
2022-09-23T12:14:01.417Z,6.55
2022-09-23T12:16:38.062Z,4.05
2022-09-23T12:19:19.292Z,8.55
2022-09-23T12:22:12.686Z,6.85
2022-09-23T12:24:58.924Z,4.35
2022-09-23T12:27:38.100Z,2.97
2022-09-23T12:30:15.123Z,8.57
2022-09-23T12:32:43.403Z,5.60
2022-09-23T12:35:32.208Z,8.45
2022-09-23T12:38:01.383Z,7.13
2022-09-23T12:40:37.083Z,7.35
2022-09-23T12:43:04.877Z,6.82
2022-09-23T12:45:35.574Z,4.70
2022-09-23T12:48:18.595Z,3.65
2022-09-23T12:50:49.393Z,7.40
2022-09-23T12:53:34.955Z,3.97
2022-09-23T12:56:16.561Z,7.20
2022-09-23T12:58:44.641Z,5.78
2022-09-23T13:01:15.404Z,3.85
2022-09-23T13:04:13.424Z,3.60
2022-09-23T13:06:51.432Z,7.53
2022-09-23T13:09:37.291Z,2.33
2022-09-23T13:12:13.716Z,6.40
2022-09-23T13:14:46.176Z,5.45
2022-09-23T13:17:34.086Z,4.40
2022-09-23T13:20:26.053Z,5.07
2022-09-23T13:22:54.283Z,4.10
2022-09-23T13:25:25.754Z,4.05
2022-09-23T13:27:56.512Z,4.03
2022-09-23T13:30:26.782Z,3.08
2022-09-23T13:33:10.622Z,3.88
2022-09-23T13:35:46.493Z,4.50
2022-09-23T13:38:25.361Z,6.30
2022-09-23T13:41:01.807Z,4.55
2022-09-23T13:43:41.213Z,3.22
2022-09-23T13:46:17.337Z,5.05
2022-09-23T13:48:47.661Z,5.40
2022-09-23T13:51:21.981Z,3.97
2022-09-23T13:53:58.477Z,3.65
2022-09-23T13:56:29.335Z,5.38
2022-09-23T13:59:23.931Z,4.28
2022-09-23T14:02:01.975Z,6.47
2022-09-23T14:04:29.741Z,4.13
2022-09-23T14:06:57.624Z,4.22
2022-09-23T14:09:27.648Z,3.80
2022-09-23T14:11:58.779Z,6.15
2022-09-23T14:14:28.078Z,5.55
2022-09-23T14:16:57.080Z,3.65
2022-09-23T14:19:26.350Z,5.03
2022-09-23T14:21:56.215Z,6.88
2022-09-23T14:24:31.878Z,5.57
2022-09-23T14:27:15.968Z,3.95
2022-09-23T14:29:46.857Z,4.82
2022-09-23T14:32:21.138Z,10.18
2022-09-23T14:34:53.111Z,4.05
2022-09-23T14:37:57.096Z,4.28
2022-09-23T14:40:32.388Z,4.70
2022-09-23T14:43:00.114Z,5.60
2022-09-23T14:45:32.680Z,7.03
2022-09-23T14:48:21.735Z,6.30
2022-09-23T14:50:52.640Z,6.45
2022-09-23T14:53:20.549Z,5.80
2022-09-23T14:55:54.408Z,5.25
2022-09-23T14:58:25.727Z,3.47
2022-09-23T15:00:54.519Z,4.65
2022-09-23T15:03:23.172Z,5.35
2022-09-23T15:06:09.170Z,7.32
2022-09-23T15:08:37.373Z,4.03
2022-09-23T15:11:08.115Z,3.90
2022-09-23T15:13:42.240Z,5.40
2022-09-23T15:16:13.691Z,6.55
2022-09-23T15:18:46.044Z,4.05
2022-09-23T15:21:19.443Z,4.22
2022-09-23T15:23:52.715Z,9.38
2022-09-23T15:26:39.338Z,3.60
2022-09-23T15:29:10.156Z,4.28
2022-09-23T15:31:37.768Z,5.70
2022-09-23T15:34:05.847Z,6.57
2022-09-23T15:36:33.490Z,4.85
2022-09-23T15:39:06.656Z,8.13
2022-09-23T15:41:35.062Z,5.13
2022-09-23T15:44:13.121Z,6.28
2022-09-23T15:46:46.886Z,4.65
2022-09-23T15:49:34.305Z,5.70
2022-09-23T15:52:02.815Z,5.30
2022-09-23T15:54:32.675Z,9.48
2022-09-23T15:57:03.422Z,4.35
2022-09-23T15:59:31.285Z,5.22
2022-09-23T16:02:06.935Z,4.82
2022-09-23T16:04:36.182Z,4.53
2022-09-23T16:07:05.759Z,7.82
2022-09-23T16:09:33.647Z,5.60
2022-09-23T16:12:02.043Z,6.22
2022-09-23T16:14:29.418Z,4.35
2022-09-23T16:16:57.654Z,5.13
2022-09-23T16:19:38.828Z,6.18
2022-09-23T16:22:06.360Z,5.72
2022-09-23T16:24:33.748Z,9.00
2022-09-23T16:27:03.088Z,8.10
2022-09-23T16:29:30.656Z,4.82
2022-09-23T16:31:57.806Z,4.43
2022-09-23T16:34:25.234Z,4.93
2022-09-23T16:36:52.656Z,7.43
2022-09-23T16:39:20.641Z,4.85
2022-09-23T16:41:48.019Z,5.90
2022-09-23T16:44:16.422Z,9.23
2022-09-23T16:46:43.723Z,6.53
2022-09-23T16:49:14.153Z,5.78
2022-09-23T16:51:41.576Z,7.47
2022-09-23T16:54:10.472Z,5.72
2022-09-23T16:56:38.845Z,6.95
2022-09-23T16:59:06.274Z,8.30
2022-09-23T17:01:52.415Z,5.13
2022-09-23T17:04:19.671Z,6.50
2022-09-23T17:06:50.157Z,7.28
2022-09-23T17:09:22.372Z,8.00
2022-09-23T17:11:56.376Z,6.07
2022-09-23T17:14:23.679Z,6.45
2022-09-23T17:16:51.149Z,6.78
2022-09-23T17:19:18.348Z,4.93
2022-09-23T17:21:45.646Z,6.65
2022-09-23T17:24:13.077Z,7.55
2022-09-23T17:26:40.441Z,6.72
2022-09-23T17:29:09.655Z,6.97
2022-09-23T17:31:37.479Z,7.03
2022-09-23T17:34:05.068Z,7.03
2022-09-23T17:36:32.385Z,6.15
2022-09-23T17:38:59.648Z,9.93
2022-09-23T17:41:27.504Z,5.95
2022-09-23T17:43:56.962Z,7.78
2022-09-23T17:46:24.347Z,12.20
2022-09-23T17:48:55.538Z,14.65
2022-09-23T17:51:24.103Z,11.95
2022-09-23T17:53:51.351Z,9.63
2022-09-23T17:56:18.600Z,14.48
2022-09-23T17:58:46.979Z,8.57
2022-09-23T18:01:15.313Z,11.70
2022-09-23T18:03:45.563Z,9.63
2022-09-23T18:06:14.427Z,8.43
2022-09-23T18:08:42.487Z,9.32
2022-09-23T18:11:17.235Z,8.25
2022-09-23T18:13:51.706Z,13.18
2022-09-23T18:16:19.716Z,16.88
2022-09-23T18:18:50.993Z,37.58
2022-09-23T18:21:19.796Z,14.93
2022-09-23T18:23:47.341Z,20.33
2022-09-23T18:26:18.512Z,14.32
2022-09-23T18:28:45.904Z,17.23
2022-09-23T18:31:13.524Z,11.68
2022-09-23T18:33:41.399Z,11.25
2022-09-23T18:36:09.118Z,10.35
2022-09-23T18:38:36.345Z,9.95
2022-09-23T18:41:04.040Z,7.95
2022-09-23T18:43:40.710Z,10.10
2022-09-23T18:46:14.999Z,8.70
2022-09-23T18:49:01.397Z,8.32
2022-09-23T18:51:29.576Z,5.60
2022-09-23T18:53:58.552Z,6.22
2022-09-23T18:56:26.821Z,5.18
2022-09-23T18:58:57.894Z,5.72
2022-09-23T19:01:25.523Z,8.02
2022-09-23T19:03:58.704Z,4.70
2022-09-23T19:06:29.041Z,5.93
2022-09-23T19:08:56.344Z,8.50
2022-09-23T19:11:24.087Z,7.20
2022-09-23T19:13:55.237Z,8.00
2022-09-23T19:16:23.115Z,8.88
2022-09-23T19:18:50.811Z,9.70
2022-09-23T19:21:20.465Z,7.72
2022-09-23T19:23:48.884Z,9.18
2022-09-23T19:26:17.604Z,11.20
2022-09-23T19:28:48.673Z,9.88
2022-09-23T19:31:22.390Z,7.85
2022-09-23T19:34:03.068Z,7.82
2022-09-23T19:36:31.383Z,8.90
2022-09-23T19:38:59.711Z,6.55
2022-09-23T19:41:31.864Z,11.80
2022-09-23T19:44:02.419Z,8.02
2022-09-23T19:46:40.631Z,4.32
2022-09-23T19:49:07.979Z,8.13
2022-09-23T19:51:35.445Z,7.15
2022-09-23T19:54:03.377Z,9.18
2022-09-23T19:56:31.312Z,7.95
2022-09-23T19:58:59.575Z,5.50
2022-09-23T20:01:28.620Z,6.75
2022-09-23T20:03:56.330Z,6.45
2022-09-23T20:06:23.651Z,5.13
2022-09-23T20:08:51.226Z,5.55
2022-09-23T20:11:26.232Z,6.93
2022-09-23T20:14:04.900Z,8.75
2022-09-23T20:16:33.331Z,5.78
2022-09-23T20:19:01.059Z,7.75
2022-09-23T20:21:29.500Z,8.52
2022-09-23T20:23:57.990Z,5.10
2022-09-23T20:26:43.839Z,7.80
2022-09-23T20:29:11.419Z,7.07
2022-09-23T20:31:40.554Z,6.60
2022-09-23T20:34:10.608Z,8.65
2022-09-23T20:36:40.145Z,6.68
2022-09-23T20:39:07.804Z,8.23
2022-09-23T20:41:37.483Z,9.07
2022-09-23T20:44:07.091Z,6.28
2022-09-23T20:46:34.794Z,7.68
2022-09-23T20:49:02.292Z,8.23
2022-09-23T20:51:29.631Z,8.95
2022-09-23T20:53:56.707Z,6.82
2022-09-23T20:56:25.151Z,5.18
2022-09-23T20:58:54.129Z,6.63
2022-09-23T21:01:22.050Z,6.82
2022-09-23T21:03:50.154Z,6.75
2022-09-23T21:06:19.046Z,5.78
2022-09-23T21:08:46.619Z,6.95
2022-09-23T21:11:15.153Z,6.72
2022-09-23T21:13:46.387Z,4.78
2022-09-23T21:16:15.426Z,8.18
2022-09-23T21:18:42.940Z,8.32
2022-09-23T21:21:10.651Z,6.70
2022-09-23T21:23:38.750Z,5.78
2022-09-23T21:26:10.588Z,5.05
2022-09-23T21:28:39.185Z,9.77
2022-09-23T21:31:07.880Z,8.23
2022-09-23T21:33:37.548Z,8.57
2022-09-23T21:36:06.396Z,7.25
2022-09-23T21:38:37.654Z,8.48
2022-09-23T21:41:06.482Z,9.13
2022-09-23T21:43:34.652Z,8.50
2022-09-23T21:46:02.957Z,12.60
2022-09-23T21:48:31.014Z,6.43
2022-09-23T21:50:59.527Z,8.82
2022-09-23T21:53:28.918Z,7.95
2022-09-23T21:56:08.145Z,6.10
2022-09-23T21:58:35.867Z,5.82
2022-09-23T22:01:15.754Z,7.85
2022-09-23T22:03:43.607Z,5.70
2022-09-23T22:06:12.353Z,11.07
2022-09-23T22:08:43.292Z,8.13
2022-09-23T22:11:30.038Z,7.25
2022-09-23T22:13:57.941Z,10.80
2022-09-23T22:16:25.428Z,8.35
2022-09-23T22:18:55.346Z,6.97
2022-09-23T22:21:23.167Z,7.72
2022-09-23T22:23:53.975Z,7.40
2022-09-23T22:26:21.381Z,8.85
2022-09-23T22:29:07.196Z,5.82
2022-09-23T22:31:53.166Z,6.78
2022-09-23T22:34:47.470Z,7.80
2022-09-23T22:37:07.997Z,7.70
2022-09-23T22:39:35.139Z,8.05
2022-09-23T22:42:03.270Z,5.85
2022-09-23T22:44:30.594Z,8.73
2022-09-23T22:46:58.571Z,6.53
2022-09-23T22:49:25.937Z,4.50
2022-09-23T22:51:55.852Z,5.95
2022-09-23T22:54:23.078Z,5.18
2022-09-23T22:56:51.001Z,6.75
2022-09-23T22:59:18.199Z,5.55
2022-09-23T23:01:45.806Z,7.32
2022-09-23T23:04:13.291Z,6.85
2022-09-23T23:06:41.414Z,5.20
2022-09-23T23:09:09.873Z,6.88
2022-09-23T23:11:40.771Z,5.18
2022-09-23T23:14:08.554Z,4.43
2022-09-23T23:16:36.200Z,5.68
2022-09-23T23:19:04.550Z,5.30
2022-09-23T23:21:31.884Z,7.88
2022-09-23T23:23:59.478Z,5.50
2022-09-23T23:26:27.894Z,3.47
2022-09-23T23:28:55.766Z,6.13
2022-09-23T23:31:24.652Z,8.18
2022-09-23T23:33:52.042Z,5.57
2022-09-23T23:36:20.533Z,6.05
2022-09-23T23:38:48.611Z,6.95
2022-09-23T23:41:16.933Z,7.47
2022-09-23T23:43:45.920Z,6.53
2022-09-23T23:46:13.848Z,5.90
2022-09-23T23:48:41.987Z,5.95
2022-09-23T23:51:11.117Z,11.23
2022-09-23T23:53:39.453Z,4.45
2022-09-23T23:56:16.731Z,7.07
2022-09-23T23:58:44.052Z,8.25
